Time;durP1;ratioP1;P1;durP2;ratioP2;P2;SDS_P1;SDS_P2;PMS_P1;PMS_P2;Temp;Humidity;BMP_temperature;BMP_pressure;BME280_temperature;BME280_humidity;BME280_pressure;Samples;Min_cycle;Max_cycle;Signal;HPM_P1;HPM_P2
2023/03/04 00:00:51;;;;;;;16.60;3.20;;;5.40;99.90;;;;;;4860433;29;20245;-56
2023/03/04 00:03:19;;;;;;;11.50;1.87;;;5.40;99.90;;;;;;4860917;29;20257;-56
2023/03/04 00:05:47;;;;;;;11.23;2.23;;;5.40;99.90;;;;;;4860976;29;20235;-57
2023/03/04 00:08:15;;;;;;;15.30;2.30;;;5.40;99.90;;;;;;4861040;29;20644;-56
2023/03/04 00:10:44;;;;;;;13.37;2.70;;;5.50;99.90;;;;;;4860564;29;20232;-56
2023/03/04 00:13:12;;;;;;;12.97;2.20;;;5.50;99.90;;;;;;4851419;29;20799;-62
2023/03/04 00:15:41;;;;;;;14.57;2.07;;;5.50;99.90;;;;;;4852355;29;20250;-62
2023/03/04 00:18:09;;;;;;;11.37;1.90;;;5.50;99.90;;;;;;4860713;29;20229;-62
2023/03/04 00:20:37;;;;;;;12.77;2.10;;;5.50;99.90;;;;;;4849174;29;20584;-62
2023/03/04 00:23:05;;;;;;;11.83;1.63;;;5.50;99.90;;;;;;4843689;29;20246;-62
2023/03/04 00:25:33;;;;;;;13.63;1.77;;;5.50;99.90;;;;;;4847318;29;20227;-61
2023/03/04 00:28:01;;;;;;;14.67;2.10;;;5.50;99.90;;;;;;4842060;29;20333;-62
2023/03/04 00:30:29;;;;;;;7.97;1.70;;;5.50;99.90;;;;;;4841489;29;20732;-62
2023/03/04 00:32:59;;;;;;;11.17;1.87;;;5.50;99.90;;;;;;4840886;29;20247;-62
2023/03/04 00:35:27;;;;;;;10.13;2.50;;;5.60;99.90;;;;;;4840733;29;20239;-62
2023/03/04 00:37:55;;;;;;;10.07;1.57;;;5.60;99.90;;;;;;4841868;29;20253;-62
2023/03/04 00:40:23;;;;;;;12.27;1.93;;;5.60;99.90;;;;;;4841993;29;20231;-62
2023/03/04 00:42:51;;;;;;;10.80;1.80;;;5.50;99.90;;;;;;4851152;29;20245;-62
2023/03/04 00:45:19;;;;;;;9.57;1.57;;;5.60;99.90;;;;;;4860347;29;20237;-62
2023/03/04 00:47:47;;;;;;;7.97;2.13;;;5.60;99.90;;;;;;4850884;29;20794;-62
2023/03/04 00:50:17;;;;;;;10.33;1.90;;;5.60;99.90;;;;;;4842168;29;20239;-62
2023/03/04 00:52:45;;;;;;;10.40;2.07;;;5.60;99.90;;;;;;4842654;29;20723;-62
2023/03/04 00:55:13;;;;;;;8.10;1.53;;;5.60;99.90;;;;;;4852509;29;20234;-62
2023/03/04 00:57:41;;;;;;;12.20;1.63;;;5.60;99.90;;;;;;4845919;29;20230;-62
2023/03/04 01:00:11;;;;;;;9.33;1.90;;;5.60;99.90;;;;;;4845588;29;20304;-62
2023/03/04 01:02:39;;;;;;;9.07;1.60;;;5.60;99.90;;;;;;4845370;29;20739;-62
2023/03/04 01:05:09;;;;;;;9.83;1.80;;;5.60;99.90;;;;;;4845582;29;20258;-62
2023/03/04 01:07:38;;;;;;;12.53;2.33;;;5.60;99.90;;;;;;4845207;29;20238;-61
2023/03/04 01:10:09;;;;;;;10.70;2.33;;;5.60;99.90;;;;;;4844241;29;20239;-62
2023/03/04 01:12:39;;;;;;;14.10;1.90;;;5.60;99.90;;;;;;4860158;29;20243;-62
2023/03/04 01:15:08;;;;;;;16.30;1.87;;;5.50;99.90;;;;;;4849641;29;20388;-62
2023/03/04 01:17:36;;;;;;;7.50;1.57;;;5.50;99.90;;;;;;4852013;29;20242;-62
2023/03/04 01:20:07;;;;;;;11.70;1.80;;;5.50;99.90;;;;;;4831675;29;20237;-62
2023/03/04 01:22:35;;;;;;;10.27;1.90;;;5.50;99.90;;;;;;4831308;29;20782;-62
2023/03/04 01:25:06;;;;;;;12.33;2.10;;;5.50;99.90;;;;;;4845591;29;20231;-61
2023/03/04 01:27:34;;;;;;;10.30;1.80;;;5.50;99.90;;;;;;4841323;29;20593;-62
2023/03/04 01:30:04;;;;;;;15.60;3.37;;;5.50;99.90;;;;;;4837536;29;20256;-62
2023/03/04 01:32:32;;;;;;;12.47;1.80;;;5.50;99.90;;;;;;4844601;29;20250;-62
2023/03/04 01:35:00;;;;;;;12.20;1.77;;;5.50;99.90;;;;;;4843022;29;20227;-61
2023/03/04 01:37:29;;;;;;;11.17;1.80;;;5.50;99.90;;;;;;4826497;29;20251;-62
2023/03/04 01:39:57;;;;;;;13.63;1.63;;;5.50;99.90;;;;;;4826626;29;20761;-62
2023/03/04 01:42:29;;;;;;;7.60;1.20;;;5.40;99.90;;;;;;4853740;29;20227;-62
2023/03/04 01:44:57;;;;;;;6.70;1.27;;;5.50;99.90;;;;;;4851153;29;20231;-62
2023/03/04 01:47:29;;;;;;;9.90;1.50;;;5.50;99.90;;;;;;4844710;29;20302;-62
2023/03/04 01:49:58;;;;;;;8.37;1.30;;;5.50;99.90;;;;;;4844833;29;20286;-61
2023/03/04 01:52:27;;;;;;;8.33;1.93;;;5.50;99.90;;;;;;4844459;29;20251;-61
2023/03/04 01:54:56;;;;;;;10.80;2.20;;;5.50;99.90;;;;;;4854404;29;20282;-62
2023/03/04 01:57:27;;;;;;;12.60;1.90;;;5.50;99.90;;;;;;4849995;29;20627;-62
2023/03/04 02:00:37;;;;;;;20.63;2.20;;;5.50;99.90;;;;;;4844501;29;20245;-61
2023/03/04 02:03:10;;;;;;;7.13;1.33;;;5.50;99.90;;;;;;4835035;29;20270;-62
2023/03/04 02:05:41;;;;;;;11.17;2.03;;;5.50;99.90;;;;;;4845436;29;20232;-62
2023/03/04 02:08:10;;;;;;;8.63;1.73;;;5.50;99.90;;;;;;4843703;29;20637;-62
2023/03/04 02:10:39;;;;;;;11.00;1.53;;;5.50;99.90;;;;;;4844218;29;20227;-62
2023/03/04 02:13:08;;;;;;;10.30;2.03;;;5.50;99.90;;;;;;4853953;29;20246;-62
2023/03/04 02:15:36;;;;;;;6.63;1.53;;;5.60;99.90;;;;;;4846249;29;20236;-62
2023/03/04 02:18:14;;;;;;;13.47;2.53;;;5.50;99.90;;;;;;4844232;29;20224;-62
2023/03/04 02:20:50;;;;;;;8.57;1.60;;;5.60;99.90;;;;;;4844156;29;20230;-62
2023/03/04 02:23:25;;;;;;;7.60;1.43;;;5.60;99.90;;;;;;4847922;29;20234;-62
2023/03/04 02:26:14;;;;;;;8.10;1.90;;;5.60;99.90;;;;;;4853445;29;20233;-62
2023/03/04 02:28:44;;;;;;;8.13;1.33;;;5.60;99.90;;;;;;4842145;29;20227;-62
2023/03/04 02:31:22;;;;;;;7.73;1.20;;;5.60;99.90;;;;;;4843678;29;20235;-62
2023/03/04 02:33:51;;;;;;;10.03;1.80;;;5.60;99.90;;;;;;4843908;29;20230;-62
2023/03/04 02:36:20;;;;;;;9.93;1.30;;;5.60;99.90;;;;;;4842793;29;20715;-62
2023/03/04 02:38:49;;;;;;;9.30;1.87;;;5.60;99.90;;;;;;4842882;29;20280;-62
2023/03/04 02:41:23;;;;;;;10.57;1.87;;;5.60;99.90;;;;;;4847739;29;20231;-62
2023/03/04 02:43:54;;;;;;;10.63;1.70;;;5.60;99.90;;;;;;4853949;29;20238;-62
2023/03/04 02:46:23;;;;;;;7.10;1.50;;;5.60;99.90;;;;;;4842511;29;20610;-62
2023/03/04 02:48:51;;;;;;;10.83;1.80;;;5.60;99.90;;;;;;4843668;29;20636;-62
2023/03/04 02:51:50;;;;;;;9.67;1.17;;;5.60;99.90;;;;;;4843802;29;20733;-62
2023/03/04 02:54:21;;;;;;;10.87;1.87;;;5.60;99.90;;;;;;4849831;29;20241;-62
2023/03/04 02:56:52;;;;;;;11.40;1.63;;;5.60;99.90;;;;;;4850301;29;21011;-62
2023/03/04 02:59:24;;;;;;;9.67;1.40;;;5.70;99.90;;;;;;4842345;29;20592;-62
2023/03/04 03:01:52;;;;;;;11.10;1.93;;;5.70;99.90;;;;;;4843186;29;20243;-62
2023/03/04 03:04:22;;;;;;;11.87;1.60;;;5.70;99.90;;;;;;4841999;29;20238;-62
2023/03/04 03:06:53;;;;;;;8.43;1.53;;;5.70;99.90;;;;;;4842160;29;20254;-62
2023/03/04 03:09:22;;;;;;;11.93;1.57;;;5.70;99.90;;;;;;4842133;29;20255;-62
2023/03/04 03:11:52;;;;;;;10.70;2.00;;;5.70;99.90;;;;;;4852493;29;20240;-62
2023/03/04 03:14:20;;;;;;;8.90;1.80;;;5.60;99.90;;;;;;4850259;29;20247;-62
2023/03/04 03:16:48;;;;;;;11.93;2.20;;;5.60;99.90;;;;;;4841870;29;20231;-62
2023/03/04 03:19:16;;;;;;;8.93;1.83;;;5.60;99.90;;;;;;4843181;29;20688;-62
2023/03/04 03:21:44;;;;;;;7.47;1.50;;;5.60;99.90;;;;;;4841240;29;20326;-62
2023/03/04 03:24:13;;;;;;;14.37;1.87;;;5.60;99.90;;;;;;4850564;29;20232;-62
2023/03/04 03:26:41;;;;;;;7.13;1.33;;;5.60;99.90;;;;;;4833841;29;20242;-62
2023/03/04 03:29:10;;;;;;;11.47;1.87;;;5.60;99.90;;;;;;4842872;29;20287;-62
2023/03/04 03:31:38;;;;;;;10.50;1.73;;;5.60;99.90;;;;;;4842586;29;20614;-62
2023/03/04 03:34:06;;;;;;;10.07;1.50;;;5.60;99.90;;;;;;4842806;29;20314;-62
2023/03/04 03:36:34;;;;;;;12.60;1.70;;;5.50;99.90;;;;;;4842777;29;20237;-62
2023/03/04 03:39:02;;;;;;;6.73;1.50;;;5.50;99.90;;;;;;4843045;29;20266;-62
2023/03/04 03:41:30;;;;;;;8.17;1.47;;;5.50;99.90;;;;;;4849467;29;20706;-61
2023/03/04 03:43:58;;;;;;;7.93;1.53;;;5.50;99.90;;;;;;4853689;29;20225;-62
2023/03/04 03:46:28;;;;;;;10.00;1.70;;;5.50;99.90;;;;;;4861292;29;20479;-62
2023/03/04 03:48:56;;;;;;;11.00;1.60;;;5.50;99.90;;;;;;4861083;29;20496;-62
2023/03/04 03:51:24;;;;;;;11.10;1.53;;;5.50;99.90;;;;;;4851831;29;20234;-60
2023/03/04 03:53:52;;;;;;;9.90;1.37;;;5.50;99.90;;;;;;4855315;29;20239;-62
2023/03/04 03:56:20;;;;;;;9.43;1.70;;;5.50;99.90;;;;;;4850672;29;20231;-62
2023/03/04 03:58:48;;;;;;;9.80;1.93;;;5.50;99.90;;;;;;4842073;29;20235;-62
2023/03/04 04:01:17;;;;;;;7.70;1.37;;;5.50;99.90;;;;;;4842193;29;20250;-62
2023/03/04 04:03:46;;;;;;;11.90;1.70;;;5.40;99.90;;;;;;4842620;29;20242;-61
2023/03/04 04:06:14;;;;;;;11.33;1.93;;;5.40;99.90;;;;;;4842451;29;20227;-62
2023/03/04 04:08:42;;;;;;;9.37;1.77;;;5.40;99.90;;;;;;4842019;29;20237;-62
2023/03/04 04:11:11;;;;;;;11.70;1.90;;;5.40;99.90;;;;;;4846679;29;20241;-62
2023/03/04 04:13:39;;;;;;;8.83;1.60;;;5.40;99.90;;;;;;4854467;29;20247;-61
2023/03/04 04:16:09;;;;;;;9.87;1.60;;;5.40;99.90;;;;;;4824505;29;20290;-61
2023/03/04 04:18:37;;;;;;;7.27;1.70;;;5.40;99.90;;;;;;4841597;29;20637;-61
2023/03/04 04:21:07;;;;;;;18.50;2.57;;;5.40;99.90;;;;;;4842269;29;20238;-61
2023/03/04 04:23:35;;;;;;;7.27;1.40;;;5.40;99.90;;;;;;4849534;29;20237;-61
2023/03/04 04:26:03;;;;;;;11.33;1.70;;;5.40;99.90;;;;;;4842897;29;20241;-62
2023/03/04 04:28:31;;;;;;;9.17;1.80;;;5.40;99.90;;;;;;4841918;29;20259;-62
2023/03/04 04:30:59;;;;;;;11.03;1.70;;;5.40;99.90;;;;;;4841671;29;20246;-61
2023/03/04 04:33:27;;;;;;;9.27;1.90;;;5.40;99.90;;;;;;4842388;29;20223;-61
2023/03/04 04:35:55;;;;;;;6.30;1.83;;;5.40;99.90;;;;;;4830461;29;20232;-61
2023/03/04 04:38:25;;;;;;;11.00;1.97;;;5.40;99.90;;;;;;4826090;29;20289;-62
2023/03/04 04:40:53;;;;;;;11.57;1.80;;;5.40;99.90;;;;;;4831526;29;20689;-63
2023/03/04 04:43:21;;;;;;;11.50;2.10;;;5.40;99.90;;;;;;4858712;29;20251;-62
2023/03/04 04:45:49;;;;;;;9.00;1.57;;;5.40;99.90;;;;;;4850480;29;20257;-63
2023/03/04 04:48:17;;;;;;;12.40;1.93;;;5.40;99.90;;;;;;4845656;29;20249;-61
2023/03/04 04:50:45;;;;;;;6.60;1.30;;;5.40;99.90;;;;;;4845233;29;20250;-61
2023/03/04 04:53:13;;;;;;;9.53;1.40;;;5.40;99.90;;;;;;4852135;29;20234;-62
2023/03/04 04:55:42;;;;;;;9.87;2.03;;;5.40;99.90;;;;;;4847770;29;20231;-61
2023/03/04 04:58:10;;;;;;;9.37;1.60;;;5.40;99.90;;;;;;4836619;29;20246;-61
2023/03/04 05:00:38;;;;;;;13.53;1.90;;;5.40;99.90;;;;;;4842430;29;20247;-61
2023/03/04 05:03:06;;;;;;;10.10;2.00;;;5.40;99.90;;;;;;4842021;29;20242;-61
2023/03/04 05:05:35;;;;;;;8.27;1.67;;;5.40;99.90;;;;;;4841909;29;20254;-61
2023/03/04 05:08:03;;;;;;;12.47;2.63;;;5.40;99.90;;;;;;4841788;29;20239;-61
2023/03/04 05:10:31;;;;;;;9.07;1.67;;;5.40;99.90;;;;;;4841812;29;20257;-61
2023/03/04 05:13:00;;;;;;;8.50;1.87;;;5.40;99.90;;;;;;4854196;29;20709;-62
2023/03/04 05:15:28;;;;;;;12.43;2.07;;;5.40;99.90;;;;;;4855591;29;20242;-61
2023/03/04 05:17:57;;;;;;;11.57;1.70;;;5.40;99.90;;;;;;4860152;29;20231;-61
2023/03/04 05:20:26;;;;;;;11.43;1.50;;;5.40;99.90;;;;;;4851362;29;20239;-61
2023/03/04 05:22:54;;;;;;;12.70;1.77;;;5.40;99.90;;;;;;4848401;29;20239;-61
2023/03/04 05:25:22;;;;;;;7.47;1.50;;;5.40;99.90;;;;;;4850597;29;20226;-61
2023/03/04 05:27:50;;;;;;;7.60;1.50;;;5.40;99.90;;;;;;4841218;29;20234;-61
2023/03/04 05:30:19;;;;;;;12.70;2.53;;;5.50;99.90;;;;;;4840730;29;20250;-61
2023/03/04 05:32:47;;;;;;;9.23;1.80;;;5.40;99.90;;;;;;4828212;29;20234;-61
2023/03/04 05:35:16;;;;;;;10.13;1.83;;;5.40;99.90;;;;;;4823384;29;20224;-61
2023/03/04 05:37:44;;;;;;;19.60;2.90;;;5.40;99.90;;;;;;4829190;29;20243;-61
2023/03/04 05:40:13;;;;;;;16.13;2.27;;;5.40;99.90;;;;;;4841278;29;20227;-61
2023/03/04 05:42:41;;;;;;;11.40;2.50;;;5.40;99.90;;;;;;4856439;29;20242;-61
2023/03/04 05:45:10;;;;;;;16.07;2.40;;;5.40;99.90;;;;;;4837411;29;20591;-61
2023/03/04 05:47:39;;;;;;;12.67;2.40;;;5.40;99.90;;;;;;4835040;29;20235;-61
2023/03/04 05:50:08;;;;;;;15.70;2.50;;;5.40;99.90;;;;;;4836088;29;20230;-61
2023/03/04 05:52:36;;;;;;;13.70;2.33;;;5.30;99.90;;;;;;4838956;29;20224;-61
2023/03/04 05:55:05;;;;;;;16.70;2.43;;;5.40;99.90;;;;;;4852151;29;20752;-61
2023/03/04 05:57:33;;;;;;;19.33;2.57;;;5.30;99.90;;;;;;4839847;29;20588;-61
2023/03/04 06:00:01;;;;;;;17.77;2.73;;;5.30;99.90;;;;;;4836521;29;20242;-60
2023/03/04 06:02:41;;;;;;;14.47;2.77;;;5.30;99.90;;;;;;4833901;29;20239;-61
2023/03/04 06:05:13;;;;;;;16.67;3.00;;;5.40;99.90;;;;;;4835858;29;20230;-61
2023/03/04 06:07:41;;;;;;;18.33;3.20;;;5.30;99.90;;;;;;4841158;29;20232;-61
2023/03/04 06:10:11;;;;;;;13.40;2.83;;;5.30;99.90;;;;;;4844405;29;20312;-61
2023/03/04 06:12:39;;;;;;;15.53;2.97;;;5.30;99.90;;;;;;4859509;29;20271;-61
2023/03/04 06:15:09;;;;;;;24.30;3.20;;;5.40;99.90;;;;;;4853947;29;20494;-61
2023/03/04 06:17:40;;;;;;;18.30;3.37;;;5.40;99.90;;;;;;4836443;29;20245;-61
2023/03/04 06:20:11;;;;;;;19.17;3.20;;;5.40;99.90;;;;;;4856730;29;20234;-61
2023/03/04 06:22:39;;;;;;;18.17;3.50;;;5.40;99.90;;;;;;4862411;29;20484;-61
2023/03/04 06:25:08;;;;;;;22.20;3.67;;;5.40;99.90;;;;;;4856543;29;20326;-61
2023/03/04 06:27:36;;;;;;;14.67;3.37;;;5.40;99.90;;;;;;4843999;29;20231;-61
2023/03/04 06:30:05;;;;;;;19.40;2.80;;;5.40;99.90;;;;;;4836649;29;20245;-61
2023/03/04 06:32:33;;;;;;;20.07;3.63;;;5.40;99.90;;;;;;4843070;29;20738;-61
2023/03/04 06:35:03;;;;;;;21.80;3.57;;;5.40;99.90;;;;;;4844111;29;20237;-61
2023/03/04 06:37:31;;;;;;;15.93;2.90;;;5.40;99.90;;;;;;4843893;29;20234;-62
2023/03/04 06:39:59;;;;;;;21.13;3.60;;;5.40;99.90;;;;;;4844262;29;20707;-62
2023/03/04 06:42:27;;;;;;;22.93;3.63;;;5.40;99.90;;;;;;4857814;29;20713;-61
2023/03/04 06:44:55;;;;;;;25.40;3.93;;;5.40;99.90;;;;;;4854554;29;20230;-62
2023/03/04 06:47:23;;;;;;;20.20;3.07;;;5.40;99.90;;;;;;4860697;29;20594;-61
2023/03/04 06:49:52;;;;;;;17.60;3.27;;;5.40;99.90;;;;;;4842800;29;20238;-62
2023/03/04 06:52:21;;;;;;;19.43;3.33;;;5.40;99.90;;;;;;4846548;29;20261;-62
2023/03/04 06:54:49;;;;;;;18.63;3.23;;;5.30;99.90;;;;;;4853925;29;20242;-61
2023/03/04 06:57:17;;;;;;;15.63;3.23;;;5.30;99.90;;;;;;4850874;29;20486;-61
2023/03/04 06:59:45;;;;;;;16.13;2.60;;;5.30;99.90;;;;;;4843761;29;20487;-61
2023/03/04 07:02:13;;;;;;;11.83;2.00;;;5.30;99.90;;;;;;4842794;29;20484;-61
2023/03/04 07:04:41;;;;;;;9.03;1.53;;;5.30;99.90;;;;;;4830684;29;20232;-61
2023/03/04 07:07:10;;;;;;;11.63;1.83;;;5.30;99.90;;;;;;4825797;29;20244;-61
2023/03/04 07:09:40;;;;;;;10.27;1.70;;;5.30;99.90;;;;;;4825059;29;20573;-61
2023/03/04 07:12:08;;;;;;;11.23;2.23;;;5.30;99.90;;;;;;4848177;29;20269;-61
2023/03/04 07:14:36;;;;;;;14.90;2.77;;;5.30;99.90;;;;;;4853717;29;20588;-61
2023/03/04 07:17:04;;;;;;;9.80;2.30;;;5.20;99.90;;;;;;4827403;29;20473;-61
2023/03/04 07:19:32;;;;;;;13.90;2.43;;;5.30;99.90;;;;;;4834530;29;20718;-61
2023/03/04 07:22:00;;;;;;;13.67;2.27;;;5.20;99.90;;;;;;4843011;29;20224;-61
2023/03/04 07:24:30;;;;;;;13.33;2.33;;;5.20;99.90;;;;;;4850719;29;20754;-61
2023/03/04 07:26:59;;;;;;;12.77;2.20;;;5.20;99.90;;;;;;4829175;29;20696;-61
2023/03/04 07:29:27;;;;;;;14.20;2.53;;;5.30;99.90;;;;;;4824720;29;20247;-61
2023/03/04 07:31:55;;;;;;;11.67;2.00;;;5.30;99.90;;;;;;4824520;29;20717;-61
2023/03/04 07:34:23;;;;;;;8.87;1.97;;;5.20;99.90;;;;;;4825170;29;20473;-60
2023/03/04 07:36:52;;;;;;;10.47;2.00;;;5.20;99.90;;;;;;4843295;29;20331;-61
2023/03/04 07:39:20;;;;;;;16.80;2.33;;;5.20;99.90;;;;;;4839679;29;20644;-61
2023/03/04 07:41:48;;;;;;;9.63;1.93;;;5.20;99.90;;;;;;4851590;29;20241;-61
2023/03/04 07:44:17;;;;;;;15.73;2.00;;;5.20;99.90;;;;;;4853530;29;20233;-61
2023/03/04 07:46:45;;;;;;;15.70;2.90;;;5.10;99.90;;;;;;4824893;29;20239;-61
2023/03/04 07:49:14;;;;;;;14.87;2.63;;;5.10;99.90;;;;;;4831313;29;20623;-61
2023/03/04 07:51:43;;;;;;;15.47;2.13;;;5.10;99.90;;;;;;4839837;29;20231;-61
2023/03/04 07:54:11;;;;;;;18.83;3.40;;;5.00;99.90;;;;;;4850070;29;20227;-61
2023/03/04 07:56:39;;;;;;;20.63;3.33;;;5.00;99.90;;;;;;4856233;29;20230;-61
2023/03/04 07:59:07;;;;;;;17.73;2.60;;;5.00;99.90;;;;;;4861132;29;20226;-61
2023/03/04 08:01:38;;;;;;;16.43;2.57;;;5.00;99.90;;;;;;4858157;29;20999;-61
2023/03/04 08:04:07;;;;;;;16.77;2.60;;;5.00;99.90;;;;;;4842540;29;20239;-61
2023/03/04 08:06:36;;;;;;;12.80;2.60;;;5.10;99.90;;;;;;4841942;29;20483;-61
2023/03/04 08:09:06;;;;;;;17.30;3.17;;;5.00;99.90;;;;;;4842767;29;20599;-61
2023/03/04 08:11:36;;;;;;;17.67;3.30;;;5.10;99.90;;;;;;4847607;29;20495;-61
2023/03/04 08:14:04;;;;;;;18.63;3.30;;;5.10;99.90;;;;;;4842443;29;20254;-61
2023/03/04 08:16:32;;;;;;;20.87;4.00;;;5.00;99.90;;;;;;4842073;29;20235;-61
2023/03/04 08:19:03;;;;;;;17.00;2.73;;;5.10;99.90;;;;;;4842207;29;20835;-61
2023/03/04 08:21:32;;;;;;;14.07;2.63;;;5.10;99.90;;;;;;4841968;29;20480;-61
2023/03/04 08:24:06;;;;;;;17.10;2.60;;;5.10;99.90;;;;;;4852455;29;20585;-61
2023/03/04 08:26:40;;;;;;;14.93;2.33;;;5.10;99.90;;;;;;4841616;29;20287;-61
2023/03/04 08:29:09;;;;;;;20.80;3.27;;;5.10;99.90;;;;;;4832576;29;20243;-61
2023/03/04 08:31:38;;;;;;;15.13;2.30;;;5.10;99.90;;;;;;4841421;29;20246;-61
2023/03/04 08:34:09;;;;;;;17.00;3.00;;;5.10;99.90;;;;;;4838485;29;20558;-61
2023/03/04 08:36:37;;;;;;;14.70;2.50;;;5.10;99.90;;;;;;4842185;29;20239;-61
2023/03/04 08:39:06;;;;;;;15.17;2.67;;;5.10;99.90;;;;;;4838295;29;20242;-61
2023/03/04 08:41:34;;;;;;;13.40;2.40;;;5.10;99.90;;;;;;4847667;29;20249;-61
2023/03/04 08:44:02;;;;;;;17.57;2.60;;;5.10;99.90;;;;;;4848558;29;20241;-61
2023/03/04 08:46:30;;;;;;;15.43;3.20;;;5.10;99.90;;;;;;4837956;29;20239;-61
2023/03/04 08:48:59;;;;;;;22.37;3.20;;;5.20;99.90;;;;;;4842164;29;20849;-60
2023/03/04 08:51:28;;;;;;;16.37;3.17;;;5.10;99.90;;;;;;4841836;29;20254;-61
2023/03/04 08:53:56;;;;;;;14.77;2.97;;;5.10;99.90;;;;;;4854628;29;20716;-61
2023/03/04 08:56:24;;;;;;;20.07;3.50;;;5.20;99.90;;;;;;4835667;29;20597;-61
2023/03/04 08:58:52;;;;;;;19.23;3.50;;;5.10;99.90;;;;;;4823863;29;20716;-61
2023/03/04 09:01:21;;;;;;;18.27;3.17;;;5.20;99.90;;;;;;4823558;29;20730;-61
2023/03/04 09:03:49;;;;;;;19.97;3.17;;;5.20;99.90;;;;;;4839134;29;20244;-61
2023/03/04 09:06:17;;;;;;;17.70;4.17;;;5.20;99.90;;;;;;4842122;29;20231;-61
2023/03/04 09:08:47;;;;;;;19.07;3.53;;;5.20;99.90;;;;;;4838426;29;20228;-61
2023/03/04 09:11:15;;;;;;;22.53;4.17;;;5.20;99.90;;;;;;4832929;29;20265;-61
2023/03/04 09:13:44;;;;;;;21.83;3.13;;;5.20;99.90;;;;;;4851989;29;20247;-61
2023/03/04 09:16:13;;;;;;;16.93;3.43;;;5.20;99.90;;;;;;4860103;29;20230;-60
2023/03/04 09:18:41;;;;;;;16.87;2.53;;;5.20;99.90;;;;;;4829989;29;20259;-61
2023/03/04 09:21:10;;;;;;;23.93;3.80;;;5.20;99.90;;;;;;4840098;29;20231;-61
2023/03/04 09:23:39;;;;;;;17.67;4.03;;;5.20;99.90;;;;;;4840756;29;20228;-61
2023/03/04 09:26:18;;;;;;;14.93;3.07;;;5.30;99.90;;;;;;4841683;29;20228;-61
2023/03/04 09:28:49;;;;;;;17.10;2.63;;;5.30;99.90;;;;;;4835253;29;20648;-61
2023/03/04 09:31:17;;;;;;;15.47;2.67;;;5.40;99.90;;;;;;4832997;29;20246;-61
2023/03/04 09:33:46;;;;;;;17.60;3.00;;;5.40;99.90;;;;;;4835221;29;20334;-61
2023/03/04 09:36:15;;;;;;;23.53;3.67;;;5.40;99.90;;;;;;4834345;29;20258;-60
2023/03/04 09:38:44;;;;;;;17.37;3.03;;;5.40;99.90;;;;;;4835097;29;20237;-61
2023/03/04 09:41:18;;;;;;;16.13;2.70;;;5.40;99.90;;;;;;4839977;29;20231;-61
2023/03/04 09:43:48;;;;;;;20.90;3.17;;;5.40;99.90;;;;;;4842527;29;20235;-61
2023/03/04 09:46:20;;;;;;;17.87;3.70;;;5.50;99.90;;;;;;4835041;29;20243;-61
2023/03/04 09:48:50;;;;;;;18.47;3.40;;;5.50;99.90;;;;;;4836607;29;20231;-61
2023/03/04 09:51:31;;;;;;;25.60;4.77;;;5.50;99.90;;;;;;4836410;29;20697;-61
2023/03/04 09:54:08;;;;;;;16.03;3.13;;;5.60;99.90;;;;;;4842870;29;20591;-61
2023/03/04 09:56:39;;;;;;;15.80;3.23;;;5.60;99.90;;;;;;4843754;29;20242;-58
2023/03/04 09:59:17;;;;;;;22.67;4.23;;;5.60;99.90;;;;;;4835393;29;20464;-58
2023/03/04 10:01:49;;;;;;;19.03;3.60;;;5.70;99.90;;;;;;4834349;29;21376;-58
2023/03/04 10:04:26;;;;;;;22.73;3.93;;;5.80;99.90;;;;;;4831572;29;20232;-58
2023/03/04 10:06:54;;;;;;;15.80;3.83;;;5.80;99.90;;;;;;4836259;29;20581;-58
2023/03/04 10:09:26;;;;;;;19.13;3.30;;;5.80;99.90;;;;;;4835366;29;20246;-57
2023/03/04 10:12:02;;;;;;;16.57;3.23;;;5.80;99.90;;;;;;4839582;29;20247;-58
2023/03/04 10:14:40;;;;;;;18.83;3.43;;;5.80;99.90;;;;;;4840979;29;20255;-57
2023/03/04 10:17:14;;;;;;;19.80;3.67;;;5.70;99.90;;;;;;4838385;29;20561;-58
2023/03/04 10:19:52;;;;;;;20.00;3.40;;;5.70;99.90;;;;;;4836290;29;20324;-58
2023/03/04 10:22:26;;;;;;;13.13;2.93;;;5.80;99.90;;;;;;4839510;29;20249;-57
2023/03/04 10:24:57;;;;;;;17.97;3.23;;;5.70;99.90;;;;;;4842112;29;20708;-58
2023/03/04 10:27:28;;;;;;;21.17;3.87;;;5.80;99.90;;;;;;4836133;29;20587;-57
2023/03/04 10:29:59;;;;;;;15.93;2.97;;;5.80;99.90;;;;;;4833065;29;20224;-57
2023/03/04 10:32:27;;;;;;;19.67;3.07;;;5.80;99.90;;;;;;4843275;29;20264;-57
2023/03/04 10:34:55;;;;;;;18.00;2.60;;;5.90;99.90;;;;;;4834286;29;20235;-57
2023/03/04 10:37:23;;;;;;;18.17;3.20;;;5.90;99.90;;;;;;4832264;29;20239;-57
2023/03/04 10:39:51;;;;;;;26.37;5.03;;;5.90;99.90;;;;;;4834970;29;20238;-57
2023/03/04 10:42:35;;;;;;;21.07;3.90;;;6.00;99.90;;;;;;4836912;29;20220;-57
2023/03/04 10:45:19;;;;;;;14.00;3.17;;;6.00;99.90;;;;;;4834018;29;20267;-57
2023/03/04 10:47:53;;;;;;;20.57;3.40;;;5.90;99.90;;;;;;4841264;29;20239;-57
2023/03/04 10:50:26;;;;;;;17.57;2.93;;;5.90;99.90;;;;;;4842656;29;20326;-57
2023/03/04 10:52:55;;;;;;;17.27;3.13;;;5.90;99.90;;;;;;4850115;29;20258;-57
2023/03/04 10:55:26;;;;;;;19.50;3.73;;;5.90;99.90;;;;;;4850090;29;20227;-57
2023/03/04 10:58:02;;;;;;;19.70;3.30;;;5.90;99.90;;;;;;4845556;29;20236;-57
2023/03/04 11:00:32;;;;;;;17.83;3.30;;;6.00;99.90;;;;;;4835603;29;20248;-57
2023/03/04 11:03:29;;;;;;;18.80;4.00;;;6.00;99.90;;;;;;4832556;29;20228;-58
2023/03/04 11:06:22;;;;;;;19.93;2.80;;;5.90;99.90;;;;;;4837573;29;20235;-58
2023/03/04 11:08:54;;;;;;;16.73;3.20;;;5.90;99.90;;;;;;4826889;29;20234;-58
2023/03/04 11:11:24;;;;;;;19.07;3.27;;;5.90;99.90;;;;;;4839002;29;20239;-58
2023/03/04 11:13:58;;;;;;;16.80;3.37;;;6.00;99.90;;;;;;4842884;29;20250;-58
2023/03/04 11:16:29;;;;;;;22.90;4.00;;;6.00;99.90;;;;;;4844352;29;20251;-57
2023/03/04 11:19:02;;;;;;;19.07;3.37;;;6.00;99.90;;;;;;4850680;29;20232;-57
2023/03/04 11:21:36;;;;;;;12.90;2.63;;;6.10;99.90;;;;;;4833127;29;20237;-57
2023/03/04 11:24:13;;;;;;;14.43;2.90;;;6.00;99.90;;;;;;4847621;29;20592;-57
2023/03/04 11:26:59;;;;;;;15.37;2.87;;;6.10;99.90;;;;;;4846675;29;20295;-57
2023/03/04 11:29:33;;;;;;;17.23;2.67;;;6.00;99.90;;;;;;4834076;29;20239;-58
2023/03/04 11:32:10;;;;;;;14.40;2.97;;;6.00;99.90;;;;;;4838238;29;20249;-58
2023/03/04 11:34:49;;;;;;;15.13;2.93;;;6.10;99.90;;;;;;4838340;29;20245;-57
2023/03/04 11:37:24;;;;;;;12.57;2.60;;;6.10;99.90;;;;;;4839499;29;20756;-57
2023/03/04 11:39:57;;;;;;;15.03;2.73;;;6.10;99.90;;;;;;4838445;29;20235;-57
2023/03/04 11:42:35;;;;;;;17.27;2.73;;;6.20;99.90;;;;;;4821835;29;20235;-56
2023/03/04 11:45:12;;;;;;;12.33;2.77;;;6.20;99.90;;;;;;4837619;29;20272;-58
2023/03/04 11:48:04;;;;;;;16.30;2.73;;;6.20;99.90;;;;;;4838510;29;20231;-57
2023/03/04 11:50:44;;;;;;;21.60;2.80;;;6.20;99.90;;;;;;4838604;29;20246;-57
2023/03/04 11:53:36;;;;;;;13.27;3.00;;;6.30;99.90;;;;;;4839002;29;20227;-57
2023/03/04 11:56:38;;;;;;;12.17;2.80;;;6.30;99.90;;;;;;4837258;29;20220;-57
2023/03/04 11:59:29;;;;;;;20.40;3.23;;;6.20;99.90;;;;;;4833184;29;20266;-57
2023/03/04 12:02:21;;;;;;;20.70;4.23;;;6.10;99.90;;;;;;4821080;29;20727;-57
2023/03/04 12:05:19;;;;;;;17.90;3.43;;;6.00;99.90;;;;;;4835708;29;20260;-57
2023/03/04 12:08:00;;;;;;;16.20;2.57;;;6.00;99.90;;;;;;4836945;29;20231;-57
2023/03/04 12:10:35;;;;;;;26.53;3.33;;;6.00;99.90;;;;;;4837280;29;20246;-57
2023/03/04 12:13:39;;;;;;;17.60;3.20;;;5.90;99.90;;;;;;4840020;29;20264;-57
2023/03/04 12:16:20;;;;;;;17.33;3.30;;;5.90;99.90;;;;;;4835328;29;20750;-57
2023/03/04 12:19:03;;;;;;;22.73;3.83;;;6.00;99.90;;;;;;4837903;29;20219;-57
2023/03/04 12:21:57;;;;;;;16.70;2.87;;;6.00;99.90;;;;;;4838981;29;20235;-57
2023/03/04 12:24:38;;;;;;;16.33;3.13;;;5.90;99.90;;;;;;4838545;29;20231;-57
2023/03/04 12:27:17;;;;;;;16.30;3.20;;;5.90;99.90;;;;;;4838095;29;20231;-57
2023/03/04 12:29:54;;;;;;;14.37;2.90;;;5.90;99.90;;;;;;4838542;29;20760;-57
2023/03/04 12:32:31;;;;;;;16.20;2.73;;;5.90;99.90;;;;;;4837765;29;20231;-57
2023/03/04 12:35:24;;;;;;;16.13;2.80;;;5.90;99.90;;;;;;4838741;29;20234;-57
2023/03/04 12:38:07;;;;;;;14.00;3.13;;;6.00;99.90;;;;;;4849537;29;20295;-58
2023/03/04 12:40:43;;;;;;;11.20;2.77;;;6.00;99.90;;;;;;4841861;29;20239;-58
2023/03/04 12:43:46;;;;;;;14.23;2.53;;;6.00;99.90;;;;;;4843398;29;20242;-59
2023/03/04 12:46:37;;;;;;;14.03;2.40;;;6.00;99.90;;;;;;4828100;29;20251;-57
2023/03/04 12:49:40;;;;;;;15.90;2.60;;;6.10;99.90;;;;;;4842269;29;20291;-57
2023/03/04 12:52:18;;;;;;;13.60;2.90;;;6.20;99.90;;;;;;4831751;29;20668;-57
2023/03/04 12:54:49;;;;;;;12.33;2.83;;;6.20;99.90;;;;;;4856462;29;20235;-57
2023/03/04 12:57:20;;;;;;;8.43;2.00;;;6.20;99.90;;;;;;4853982;29;20239;-57
2023/03/04 12:59:54;;;;;;;11.47;2.90;;;6.10;99.90;;;;;;4848131;29;20234;-58
2023/03/04 13:02:44;;;;;;;12.03;2.20;;;6.10;99.90;;;;;;4847642;29;20242;-57
2023/03/04 13:05:27;;;;;;;13.97;2.50;;;6.10;99.90;;;;;;4847943;29;20226;-57
2023/03/04 13:08:03;;;;;;;15.97;2.80;;;6.00;99.90;;;;;;4848208;29;20235;-57
2023/03/04 13:10:31;;;;;;;21.93;3.10;;;6.00;99.90;;;;;;4847749;29;20227;-57